createdAt,value
2018-02-06T00:02:04.795Z,19.65
2018-02-06T00:04:33.063Z,13.68
2018-02-06T00:07:01.303Z,16.25
2018-02-06T00:09:28.818Z,15.05
2018-02-06T00:11:56.317Z,15.23
2018-02-06T00:14:23.790Z,19.12
2018-02-06T00:16:51.363Z,15.30
2018-02-06T00:19:19.605Z,10.95
2018-02-06T00:21:47.083Z,10.23
2018-02-06T00:24:15.343Z,10.43
2018-02-06T00:26:42.815Z,10.82
2018-02-06T00:29:10.290Z,11.30
2018-02-06T00:31:38.630Z,12.63
2018-02-06T00:34:08.030Z,13.27
2018-02-06T00:36:35.510Z,11.65
2018-02-06T00:39:02.991Z,19.00
2018-02-06T00:41:30.470Z,15.00
2018-02-06T00:43:57.940Z,14.25
2018-02-06T00:46:25.445Z,10.98
2018-02-06T00:48:52.893Z,11.57
2018-02-06T00:51:21.136Z,15.15
2018-02-06T00:53:48.638Z,12.40
2018-02-06T00:56:16.119Z,14.65
2018-02-06T00:58:43.592Z,16.90
2018-02-06T01:01:11.070Z,15.85
2018-02-06T01:03:38.538Z,17.65
2018-02-06T01:06:07.068Z,16.05
2018-02-06T01:08:35.425Z,13.68
2018-02-06T01:11:02.895Z,13.80
2018-02-06T01:13:30.369Z,13.80
2018-02-06T01:15:57.858Z,13.45
2018-02-06T01:18:25.362Z,10.07
2018-02-06T01:20:52.839Z,11.48
2018-02-06T01:23:20.319Z,10.15
2018-02-06T01:25:47.787Z,16.20
2018-02-06T01:28:15.264Z,12.23
2018-02-06T01:30:43.519Z,13.07
2018-02-06T01:33:10.988Z,12.82
2018-02-06T01:35:39.232Z,10.48
2018-02-06T01:38:06.815Z,12.77
2018-02-06T01:40:35.062Z,16.33
2018-02-06T01:43:02.548Z,13.70
2018-02-06T01:45:30.806Z,18.23
2018-02-06T01:47:58.269Z,14.15
2018-02-06T01:50:25.751Z,13.73
2018-02-06T01:52:53.998Z,13.32
2018-02-06T01:55:21.464Z,11.15
2018-02-06T01:57:49.706Z,10.88
2018-02-06T02:00:17.278Z,11.85
2018-02-06T02:02:44.758Z,14.38
2018-02-06T02:05:12.999Z,16.10
2018-02-06T02:07:40.575Z,10.48
2018-02-06T02:10:08.035Z,11.25
2018-02-06T02:12:36.273Z,10.80
2018-02-06T02:15:03.767Z,10.80
2018-02-06T02:17:31.998Z,12.73
2018-02-06T02:19:59.466Z,11.10
2018-02-06T02:22:26.970Z,20.08
2018-02-06T02:24:54.458Z,16.20
2018-02-06T02:27:21.936Z,13.60
2018-02-06T02:29:49.412Z,16.02
2018-02-06T02:32:16.872Z,14.30
2018-02-06T02:34:45.124Z,14.70
2018-02-06T02:37:12.608Z,17.65
2018-02-06T02:39:40.079Z,18.27
2018-02-06T04:40:19.279Z,11.68
2018-02-06T04:42:47.528Z,14.27
2018-02-06T04:45:14.997Z,10.77
2018-02-06T04:47:42.490Z,11.38
2018-02-06T04:50:09.950Z,11.38
2018-02-06T04:52:38.249Z,12.25
2018-02-06T04:55:06.471Z,10.30
2018-02-06T04:57:33.974Z,9.73
2018-02-06T05:00:02.257Z,16.52
2018-02-06T05:02:29.718Z,17.23
2018-02-06T05:04:57.201Z,14.68
2018-02-06T05:07:24.741Z,17.83
2018-02-06T05:09:52.350Z,12.43
2018-02-06T05:12:20.222Z,16.40
2018-02-06T05:14:48.759Z,17.12
2018-02-06T05:17:16.309Z,14.35
2018-02-06T05:19:43.800Z,12.30
2018-02-06T05:22:11.265Z,15.20
2018-02-06T05:24:39.574Z,13.93
2018-02-06T05:27:07.057Z,16.37
2018-02-06T05:29:34.542Z,16.87
2018-02-06T05:32:02.007Z,15.40
2018-02-06T05:34:29.497Z,18.08
2018-02-06T05:36:56.969Z,12.70
2018-02-06T05:39:24.468Z,20.70
2018-02-06T05:41:51.944Z,19.35
2018-02-06T05:44:20.254Z,18.15
2018-02-06T05:46:47.740Z,16.20
2018-02-06T05:49:15.201Z,13.65
2018-02-06T05:51:42.692Z,16.80
2018-02-06T05:54:10.944Z,17.30
2018-02-06T05:56:38.412Z,13.80
2018-02-06T05:59:06.666Z,17.20
2018-02-06T06:01:34.128Z,15.70
2018-02-06T06:04:01.627Z,14.45
2018-02-06T06:06:29.100Z,15.95
2018-02-06T06:08:56.877Z,18.55
2018-02-06T06:11:24.358Z,19.95
2018-02-06T06:13:51.829Z,17.10
2018-02-06T06:16:20.094Z,18.15
2018-02-06T06:18:47.560Z,15.63
2018-02-06T06:21:15.052Z,17.87
2018-02-06T06:23:42.516Z,18.10
2018-02-06T06:26:10.003Z,16.15
2018-02-06T06:28:38.276Z,15.77
2018-02-06T06:31:05.748Z,16.60
2018-02-06T06:33:33.226Z,15.30
2018-02-06T06:36:01.489Z,17.05
2018-02-06T06:38:29.720Z,20.10
2018-02-06T06:40:57.191Z,20.02
2018-02-06T06:43:24.666Z,20.02
2018-02-06T06:45:52.128Z,14.77
2018-02-06T06:48:19.624Z,9.23
2018-02-06T06:50:47.118Z,10.30
2018-02-06T06:53:14.840Z,9.68
2018-02-06T06:55:42.350Z,9.13
2018-02-06T06:58:09.811Z,10.05
2018-02-06T07:00:37.276Z,11.77
2018-02-06T07:03:05.540Z,10.48
2018-02-06T07:05:33.006Z,9.73
2018-02-06T07:08:00.492Z,10.77
2018-02-06T07:10:27.959Z,9.18
2018-02-06T07:12:55.444Z,11.98
2018-02-06T07:15:22.909Z,11.48
2018-02-06T07:17:50.402Z,10.30
2018-02-06T07:20:18.654Z,10.07
2018-02-06T07:22:46.140Z,12.02
2018-02-06T07:25:13.606Z,11.27
2018-02-06T07:27:41.098Z,11.55
2018-02-06T07:30:08.594Z,12.27
2018-02-06T07:32:36.822Z,11.23
2018-02-06T07:35:04.318Z,10.25
2018-02-06T07:37:32.566Z,10.00
2018-02-06T07:40:00.023Z,9.90
2018-02-06T07:42:27.506Z,9.82
2018-02-06T07:44:55.749Z,10.38
2018-02-06T07:47:23.219Z,8.95
2018-02-06T07:49:50.689Z,11.63
2018-02-06T07:52:18.190Z,11.00
2018-02-06T07:54:45.654Z,10.23
2018-02-06T07:57:13.150Z,9.45
2018-02-06T07:59:40.633Z,9.50
2018-02-06T08:02:08.863Z,11.10
2018-02-06T08:04:36.345Z,11.98
2018-02-06T08:07:04.582Z,13.20
2018-02-06T08:09:32.072Z,10.35
2018-02-06T08:11:59.533Z,11.80
2018-02-06T08:14:27.789Z,9.95
2018-02-06T08:16:55.249Z,12.27
2018-02-06T08:19:22.714Z,12.30
2018-02-06T08:21:50.978Z,13.10
2018-02-06T08:24:18.434Z,10.35
2018-02-06T08:26:45.930Z,11.40
2018-02-06T08:29:13.392Z,12.60
2018-02-06T08:31:40.877Z,11.82
2018-02-06T08:34:08.350Z,19.12
2018-02-06T08:36:35.841Z,17.92
2018-02-06T08:39:04.093Z,17.02
2018-02-06T08:41:31.593Z,17.23
2018-02-06T08:43:59.060Z,14.43
2018-02-06T08:46:26.522Z,14.95
2018-02-06T08:48:54.015Z,17.48
2018-02-06T08:51:21.509Z,14.15
2018-02-06T08:53:49.033Z,17.60
2018-02-06T08:56:16.488Z,16.45
2018-02-06T08:58:43.953Z,14.43
2018-02-06T09:01:12.201Z,10.43
2018-02-06T09:03:39.671Z,12.48
2018-02-06T09:06:07.164Z,12.18
2018-02-06T09:08:34.620Z,10.65
2018-02-06T09:11:02.132Z,12.32
2018-02-06T09:13:29.611Z,10.48
2018-02-06T09:15:57.841Z,12.10
2018-02-06T09:18:25.325Z,8.60
2018-02-06T09:20:52.785Z,8.70
2018-02-06T09:23:20.276Z,10.15
2018-02-06T09:25:47.760Z,13.32
2018-02-06T09:28:15.217Z,9.95
2018-02-06T09:30:42.722Z,13.65
2018-02-06T09:33:10.967Z,12.18
2018-02-06T09:35:38.441Z,12.73
2018-02-06T09:38:05.922Z,11.60
2018-02-06T09:40:34.180Z,11.68
2018-02-06T09:43:02.405Z,12.90
2018-02-06T09:45:29.916Z,13.88
2018-02-06T09:47:57.397Z,14.48
2018-02-06T09:50:24.858Z,12.07
2018-02-06T09:52:52.326Z,15.95
2018-02-06T09:55:19.824Z,12.60
2018-02-06T09:57:47.312Z,13.45
2018-02-06T10:00:14.798Z,15.32
2018-02-06T10:02:42.285Z,13.75
2018-02-06T10:05:09.776Z,12.52
2018-02-06T10:07:37.261Z,12.85
2018-02-06T10:10:04.771Z,10.77
2018-02-06T10:12:32.224Z,9.27
2018-02-06T10:15:00.465Z,13.40
2018-02-06T10:17:27.964Z,15.57
2018-02-06T10:19:56.203Z,10.30
2018-02-06T10:22:23.706Z,10.77
2018-02-06T10:24:51.170Z,9.53
2018-02-06T10:27:18.634Z,9.40
2018-02-06T10:29:46.117Z,6.47
2018-02-06T10:32:13.590Z,9.38
2018-02-06T10:34:41.074Z,9.00
2018-02-06T10:37:09.301Z,7.23
2018-02-06T10:39:36.804Z,9.60
2018-02-06T10:42:05.033Z,6.77
2018-02-06T10:44:32.501Z,10.27
2018-02-06T10:46:59.979Z,10.70
2018-02-06T10:49:27.438Z,13.10
2018-02-06T10:51:55.731Z,12.80
2018-02-06T10:54:23.953Z,8.90
2018-02-06T10:56:51.429Z,10.93
2018-02-06T10:59:18.893Z,9.83
2018-02-06T11:01:47.154Z,13.55
2018-02-06T11:04:14.618Z,14.73
2018-02-06T11:06:42.098Z,12.27
2018-02-06T11:09:10.333Z,21.23
2018-02-06T11:11:37.812Z,16.30
2018-02-06T11:14:05.297Z,12.17
2018-02-06T11:16:32.788Z,12.50
2018-02-06T11:19:00.248Z,12.30
2018-02-06T11:21:27.733Z,13.93
2018-02-06T11:23:55.199Z,13.43
2018-02-06T11:26:22.676Z,14.70
2018-02-06T11:28:50.138Z,14.43
2018-02-06T11:31:17.629Z,12.53
2018-02-06T11:33:45.119Z,12.50
2018-02-06T11:36:12.585Z,10.80
2018-02-06T11:38:40.855Z,12.60
2018-02-06T11:41:09.090Z,12.40
2018-02-06T11:43:36.549Z,12.87
2018-02-06T11:46:04.043Z,12.30
2018-02-06T11:48:31.497Z,11.23
2018-02-06T11:50:59.747Z,10.73
2018-02-06T11:53:27.233Z,9.57
2018-02-06T11:55:55.480Z,9.13
2018-02-06T11:58:22.941Z,13.23
2018-02-06T12:00:50.425Z,9.50
2018-02-06T12:03:18.664Z,15.07
2018-02-06T12:05:46.158Z,13.97
2018-02-06T12:08:14.405Z,16.00
2018-02-06T12:10:41.901Z,15.07
2018-02-06T12:13:13.448Z,15.77
2018-02-06T12:15:40.964Z,15.13
2018-02-06T12:18:08.443Z,14.83
2018-02-06T12:20:36.665Z,10.67
2018-02-06T12:23:04.180Z,9.33
2018-02-06T12:25:32.396Z,8.73
2018-02-06T12:27:59.853Z,5.77
2018-02-06T12:30:27.324Z,6.77
2018-02-06T12:32:54.790Z,9.20
2018-02-06T12:35:22.257Z,10.60
2018-02-06T12:37:49.741Z,11.17
2018-02-06T12:40:17.228Z,8.27
2018-02-06T12:42:44.690Z,7.13
2018-02-06T12:45:12.170Z,9.50
2018-02-06T12:47:39.633Z,9.10
2018-02-06T12:50:07.087Z,8.73
2018-02-06T12:52:34.554Z,5.43
2018-02-06T12:55:02.777Z,7.53
2018-02-06T12:57:30.234Z,7.83
2018-02-06T12:59:58.042Z,8.10
2018-02-06T13:02:25.494Z,8.80
2018-02-06T13:04:52.953Z,15.67
2018-02-06T13:07:20.440Z,8.47
2018-02-06T13:09:47.904Z,11.00
2018-02-06T13:12:15.353Z,8.40
2018-02-06T13:14:42.916Z,7.00
2018-02-06T13:17:10.379Z,7.60
2018-02-06T13:19:37.841Z,6.60
2018-02-06T13:22:05.311Z,6.67
2018-02-06T13:24:33.537Z,5.57
2018-02-06T13:27:01.797Z,7.40
2018-02-06T13:29:29.384Z,10.60
2018-02-06T13:31:56.836Z,6.30
2018-02-06T13:34:24.292Z,7.10
2018-02-06T13:36:51.781Z,9.83
2018-02-06T13:39:19.235Z,8.97
2018-02-06T13:41:46.700Z,10.10
2018-02-06T13:44:14.190Z,8.67
2018-02-06T13:46:41.637Z,8.10
2018-02-06T13:49:09.101Z,7.17
2018-02-06T13:51:36.749Z,6.33
2018-02-06T13:54:04.210Z,11.37
2018-02-06T13:56:31.665Z,8.33
2018-02-06T13:58:59.138Z,13.33
2018-02-06T14:01:27.457Z,10.63
2018-02-06T14:03:54.945Z,9.40
2018-02-06T14:06:22.428Z,7.70
2018-02-06T14:08:50.658Z,8.00
2018-02-06T14:11:18.197Z,9.90
2018-02-06T14:13:45.661Z,9.40
2018-02-06T14:16:13.142Z,6.33
2018-02-06T14:18:40.605Z,9.53
2018-02-06T14:21:08.093Z,10.53
2018-02-06T14:23:36.321Z,9.87
2018-02-06T14:26:03.800Z,8.40
2018-02-06T14:28:31.257Z,8.00
2018-02-06T14:30:58.746Z,15.10
2018-02-06T14:33:26.218Z,12.73
2018-02-06T14:35:53.708Z,9.03
2018-02-06T14:38:21.862Z,9.23
2018-02-06T14:40:49.329Z,8.73
2018-02-06T14:43:16.813Z,8.83
2018-02-06T14:45:45.044Z,9.00
2018-02-06T14:48:12.521Z,10.63
2018-02-06T14:50:40.009Z,14.27
2018-02-06T14:53:08.259Z,13.67
2018-02-06T14:55:35.745Z,13.77
2018-02-06T14:58:03.972Z,13.83
2018-02-06T15:00:31.470Z,10.87
2018-02-06T15:02:59.696Z,16.80
2018-02-06T15:05:27.153Z,12.20
2018-02-06T15:07:54.643Z,11.93
2018-02-06T15:10:22.096Z,13.97
2018-02-06T15:12:49.579Z,10.40
2018-02-06T15:15:17.821Z,10.73
2018-02-06T15:17:45.285Z,9.60
2018-02-06T15:20:12.749Z,9.40
2018-02-06T15:22:40.993Z,9.50
2018-02-06T15:25:08.472Z,10.00
2018-02-06T15:27:35.928Z,9.17
2018-02-06T15:30:04.193Z,11.20
2018-02-06T15:32:31.653Z,8.50
2018-02-06T15:34:59.108Z,10.53
2018-02-06T15:37:26.573Z,8.50
2018-02-06T15:39:54.812Z,11.40
2018-02-06T15:42:22.298Z,8.90
2018-02-06T15:44:50.548Z,12.70
2018-02-06T15:47:18.098Z,13.13
2018-02-06T15:49:45.594Z,13.60
2018-02-06T15:52:13.045Z,12.67
2018-02-06T15:54:40.542Z,15.30
2018-02-06T15:57:08.042Z,12.77
2018-02-06T15:59:35.505Z,9.63
2018-02-06T16:02:02.988Z,11.70
2018-02-06T16:04:31.225Z,10.90
2018-02-06T16:06:58.713Z,12.47
2018-02-06T16:09:27.037Z,12.23
2018-02-06T16:12:00.067Z,10.27
2018-02-06T16:14:28.080Z,10.43
2018-02-06T16:16:59.853Z,10.47
2018-02-06T16:19:27.326Z,9.60
2018-02-06T16:21:54.792Z,10.43
2018-02-06T16:24:22.299Z,10.43
2018-02-06T16:26:49.774Z,9.53
2018-02-06T16:29:17.269Z,9.43
2018-02-06T16:31:44.732Z,10.03
2018-02-06T16:34:12.988Z,10.50
2018-02-06T16:36:40.478Z,10.13
2018-02-06T16:39:08.706Z,11.23
2018-02-06T16:41:36.205Z,11.07
2018-02-06T16:44:04.430Z,9.83
2018-02-06T16:46:31.914Z,10.13
2018-02-06T16:48:59.373Z,12.10
2018-02-06T16:51:27.646Z,10.23
2018-02-06T16:53:55.101Z,10.63
2018-02-06T16:56:23.363Z,10.20
2018-02-06T16:58:50.821Z,10.50
2018-02-06T17:01:18.326Z,10.63
2018-02-06T17:03:45.786Z,11.83
2018-02-06T17:06:13.257Z,9.03
2018-02-06T17:08:40.740Z,9.83
2018-02-06T17:11:08.205Z,10.97
2018-02-06T17:13:35.693Z,10.07
2018-02-06T17:16:03.206Z,10.20
2018-02-06T17:18:30.676Z,8.60
2018-02-06T17:20:58.160Z,9.50
2018-02-06T17:23:25.670Z,10.77
2018-02-06T17:25:53.164Z,11.30
2018-02-06T17:28:21.381Z,12.40
2018-02-06T17:30:48.856Z,12.80
2018-02-06T17:33:16.330Z,13.43
2018-02-06T17:35:43.825Z,13.33
2018-02-06T17:38:11.675Z,14.00
2018-02-06T17:40:39.180Z,15.30
2018-02-06T17:43:06.703Z,15.23
2018-02-06T17:45:34.302Z,12.70
2018-02-06T17:48:01.840Z,12.30
2018-02-06T17:50:29.320Z,16.63
2018-02-06T17:52:56.809Z,19.97
2018-02-06T17:55:25.356Z,17.98
2018-02-06T17:57:54.445Z,16.25
2018-02-06T18:00:21.982Z,14.90
2018-02-06T18:02:49.491Z,20.30
2018-02-06T18:05:17.760Z,18.53
2018-02-06T18:07:46.093Z,19.57
2018-02-06T18:10:13.587Z,19.20
2018-02-06T18:12:41.130Z,16.77
2018-02-06T18:15:08.661Z,16.03
2018-02-06T18:17:36.226Z,18.87
2018-02-06T18:20:03.718Z,19.20
2018-02-06T18:22:31.197Z,20.50
2018-02-06T18:24:58.737Z,19.70
2018-02-06T18:27:27.077Z,18.23
2018-02-06T18:29:54.800Z,22.02
2018-02-06T18:32:22.412Z,21.65
2018-02-06T18:34:49.899Z,19.17
2018-02-06T18:37:18.264Z,20.43
2018-02-06T18:39:45.688Z,22.35
2018-02-06T18:42:13.237Z,17.10
2018-02-06T18:44:41.432Z,15.65
2018-02-06T18:47:08.927Z,21.43
2018-02-06T18:49:37.153Z,16.33
2018-02-06T18:52:04.649Z,18.40
2018-02-06T18:54:32.885Z,15.00
2018-02-06T18:57:00.386Z,17.07
2018-02-06T18:59:28.664Z,19.35
2018-02-06T19:01:56.888Z,18.27
2018-02-06T19:04:24.397Z,15.98
2018-02-06T19:06:51.861Z,15.90
2018-02-06T19:09:19.428Z,20.70
2018-02-06T19:11:46.913Z,22.20
2018-02-06T19:14:14.405Z,27.30
2018-02-06T19:16:42.677Z,18.17
2018-02-06T19:19:10.956Z,20.65
2018-02-06T19:21:38.387Z,20.55
2018-02-06T19:24:05.913Z,22.80
2018-02-06T19:26:33.408Z,23.27
2018-02-06T19:29:00.872Z,21.87
2018-02-06T19:31:29.139Z,24.20
2018-02-06T19:33:56.752Z,21.05
2018-02-06T19:36:24.353Z,21.92
2018-02-06T19:38:51.926Z,21.37
2018-02-06T19:41:19.430Z,20.70
2018-02-06T19:43:46.968Z,22.13
2018-02-06T19:46:14.453Z,19.00
2018-02-06T19:48:41.991Z,19.60
2018-02-06T19:51:09.468Z,15.32
2018-02-06T19:53:37.021Z,24.17
2018-02-06T19:56:04.496Z,22.65
2018-02-06T19:58:32.009Z,17.00
2018-02-06T20:01:00.443Z,19.33
2018-02-06T20:03:27.962Z,18.92
2018-02-06T20:05:55.472Z,18.48
2018-02-06T20:08:22.970Z,24.17
2018-02-06T20:10:50.482Z,19.80
2018-02-06T20:13:18.227Z,20.92
2018-02-06T20:15:45.755Z,16.67
2018-02-06T20:18:13.276Z,19.95
2018-02-06T20:20:41.536Z,21.50
2018-02-06T20:23:09.039Z,19.27
2018-02-06T20:28:32.161Z,14.05
2018-02-06T20:30:59.642Z,13.80
2018-02-06T20:33:27.896Z,14.87
2018-02-06T20:35:56.187Z,14.57
2018-02-06T20:38:24.442Z,15.48
2018-02-06T20:40:51.980Z,12.90
2018-02-06T20:43:40.284Z,13.75
2018-02-06T20:46:07.762Z,12.75
2018-02-06T20:48:35.224Z,13.07
2018-02-06T20:53:54.808Z,13.15
2018-02-06T20:56:22.323Z,13.80
2018-02-06T20:58:50.608Z,11.35
2018-02-06T21:01:18.848Z,12.43
2018-02-06T21:03:46.326Z,13.18
2018-02-06T21:06:14.590Z,12.88
2018-02-06T21:08:42.908Z,13.00
2018-02-06T21:11:11.138Z,11.75
2018-02-06T21:13:39.406Z,12.00
2018-02-06T21:16:06.893Z,12.85
2018-02-06T21:18:34.361Z,13.62
2018-02-06T21:21:01.862Z,12.07
2018-02-06T21:23:30.285Z,11.43
2018-02-06T21:25:57.826Z,12.02
2018-02-06T21:28:25.296Z,12.73
2018-02-06T21:30:52.844Z,11.75
2018-02-06T21:33:21.077Z,10.40
2018-02-06T21:35:48.577Z,11.35
2018-02-06T21:38:16.101Z,11.55
2018-02-06T21:40:43.589Z,11.73
2018-02-06T21:43:11.812Z,11.50
2018-02-06T21:45:39.304Z,11.38
2018-02-06T21:48:07.565Z,15.48
2018-02-06T21:50:35.042Z,12.13
2018-02-06T21:53:03.305Z,13.45
2018-02-06T21:55:30.790Z,11.77
2018-02-06T21:57:58.288Z,11.32
2018-02-06T22:00:25.756Z,10.77
2018-02-06T22:02:53.241Z,11.85
2018-02-06T22:05:21.478Z,11.75
2018-02-06T22:07:48.964Z,11.82
2018-02-06T22:10:17.297Z,12.95
2018-02-06T22:12:44.753Z,11.60
2018-02-06T22:15:12.240Z,11.43
2018-02-06T22:17:39.720Z,10.57
2018-02-06T22:20:07.213Z,13.20
2018-02-06T22:22:34.693Z,10.05
2018-02-06T22:25:02.157Z,13.35
2018-02-06T22:27:29.649Z,11.80
2018-02-06T22:29:57.146Z,12.05
2018-02-06T22:32:24.616Z,11.12
2018-02-06T22:34:52.120Z,13.52
2018-02-06T22:37:20.368Z,11.70
2018-02-06T22:39:48.600Z,11.45
2018-02-06T22:42:16.097Z,11.82
2018-02-06T22:44:43.561Z,12.00
2018-02-06T22:47:11.797Z,11.52
2018-02-06T22:49:39.415Z,11.12
2018-02-06T22:52:07.643Z,12.70
2018-02-06T22:54:35.130Z,11.90
2018-02-06T22:57:03.385Z,12.88
2018-02-06T22:59:30.852Z,10.38
2018-02-06T23:01:58.362Z,11.43
2018-02-06T23:04:25.816Z,11.50
2018-02-06T23:06:53.286Z,11.43
2018-02-06T23:09:20.838Z,13.75
2018-02-06T23:11:48.310Z,11.15
2018-02-06T23:14:15.806Z,10.70
2018-02-06T23:16:44.036Z,10.93
2018-02-06T23:19:11.514Z,12.15
2018-02-06T23:21:39.057Z,11.95
2018-02-06T23:24:06.522Z,11.15
2018-02-06T23:26:34.003Z,11.75
2018-02-06T23:29:02.238Z,11.75
2018-02-06T23:31:29.729Z,11.15
2018-02-06T23:33:57.960Z,12.48
2018-02-06T23:36:25.433Z,12.05
2018-02-06T23:38:52.929Z,12.40
2018-02-06T23:41:20.400Z,12.50
2018-02-06T23:43:47.878Z,12.82
2018-02-06T23:46:15.365Z,11.95
2018-02-06T23:48:42.825Z,12.43
2018-02-06T23:51:10.308Z,11.18
2018-02-06T23:53:37.794Z,11.80
2018-02-06T23:56:05.274Z,11.98
2018-02-06T23:58:32.758Z,11.10
